Time;durP1;ratioP1;P1;durP2;ratioP2;P2;SDS_P1;SDS_P2;PMS_P1;PMS_P2;Temp;Humidity;BMP_temperature;BMP_pressure;BME280_temperature;BME280_humidity;BME280_pressure;Samples;Min_cycle;Max_cycle;Signal;HPM_P1;HPM_P2
2023/07/19 00:00:41;;;;;;;3.85;2.60;;;;;;;25.71;54.43;99115.59;4989425;28;20194;-58
2023/07/19 00:03:08;;;;;;;3.17;2.42;;;;;;;25.74;54.88;99120.41;4989194;28;20225;-58
2023/07/19 00:05:35;;;;;;;3.85;2.65;;;;;;;25.69;55.00;99122.88;4988916;28;20201;-58
2023/07/19 00:08:04;;;;;;;4.93;2.65;;;;;;;25.67;55.50;99117.03;4989136;28;20655;-58
2023/07/19 00:10:31;;;;;;;4.78;2.72;;;;;;;25.64;55.28;99112.22;4988881;28;20205;-58
2023/07/19 00:12:57;;;;;;;4.63;2.50;;;;;;;25.56;55.67;99112.44;4988812;28;20236;-58
2023/07/19 00:15:24;;;;;;;4.38;2.50;;;;;;;25.44;54.90;99122.75;4988875;28;20206;-58
2023/07/19 00:17:51;;;;;;;4.20;2.58;;;;;;;25.32;54.59;99127.81;4988774;28;20477;-58
2023/07/19 00:20:18;;;;;;;5.88;3.22;;;;;;;25.19;54.40;99128.66;4988857;28;20640;-58
2023/07/19 00:22:46;;;;;;;5.50;2.60;;;;;;;25.23;54.92;99132.47;4988858;28;20202;-58
2023/07/19 00:25:14;;;;;;;4.43;2.92;;;;;;;25.26;55.47;99129.44;4988757;28;20206;-58
2023/07/19 00:27:41;;;;;;;3.25;2.42;;;;;;;25.26;55.66;99129.44;4988690;28;20198;-58
2023/07/19 00:30:08;;;;;;;3.33;2.50;;;;;;;25.26;54.41;99118.19;4988594;28;20217;-59
2023/07/19 00:32:35;;;;;;;3.58;2.63;;;;;;;25.25;55.74;99121.81;4988967;28;20233;-58
2023/07/19 00:35:02;;;;;;;5.40;3.10;;;;;;;25.18;56.40;99121.00;4988717;28;20197;-58
2023/07/19 00:37:29;;;;;;;3.55;2.63;;;;;;;25.11;56.62;99121.00;4988614;28;20609;-58
2023/07/19 00:39:56;;;;;;;5.75;2.70;;;;;;;25.03;55.67;99122.00;4988227;28;20212;-57
2023/07/19 00:42:24;;;;;;;9.43;3.25;;;;;;;25.03;55.92;99114.16;4988538;28;20198;-58
2023/07/19 00:44:51;;;;;;;3.75;2.70;;;;;;;25.00;56.89;99114.56;4988566;28;20205;-58
2023/07/19 00:47:18;;;;;;;3.70;2.75;;;;;;;25.02;57.50;99112.56;4988101;28;20232;-58
2023/07/19 00:49:45;;;;;;;3.85;2.72;;;;;;;24.98;57.94;99110.53;4988319;28;20205;-58
2023/07/19 00:52:13;;;;;;;4.75;3.10;;;;;;;24.93;59.05;99113.78;4988162;28;20630;-58
2023/07/19 00:54:40;;;;;;;10.15;2.80;;;;;;;24.85;57.93;99114.78;4988224;28;20205;-58
2023/07/19 00:57:08;;;;;;;3.67;2.65;;;;;;;24.81;57.59;99116.22;4987482;28;20206;-58
2023/07/19 00:59:37;;;;;;;4.40;2.60;;;;;;;24.78;57.88;99115.78;4987944;28;20201;-58
2023/07/19 01:02:05;;;;;;;4.65;2.58;;;;;;;24.67;56.94;99114.59;4988185;28;20224;-58
2023/07/19 01:04:32;;;;;;;5.47;2.70;;;;;;;24.72;57.83;99103.53;4988138;28;20585;-58
2023/07/19 01:06:59;;;;;;;3.50;2.63;;;;;;;24.77;58.04;99094.06;4988135;28;20198;-58
2023/07/19 01:09:27;;;;;;;4.10;2.92;;;;;;;24.77;58.59;99088.84;4987881;28;20204;-58
2023/07/19 01:11:54;;;;;;;3.65;2.55;;;;;;;24.76;58.76;99083.81;4987959;28;20241;-58
2023/07/19 01:14:21;;;;;;;4.32;2.83;;;;;;;24.77;59.23;99073.16;4988014;28;20201;-58
2023/07/19 01:16:49;;;;;;;4.75;2.92;;;;;;;24.75;59.61;99063.91;4988348;28;20344;-59
2023/07/19 01:19:17;;;;;;;5.97;3.10;;;;;;;24.68;61.39;99073.56;4988067;28;20228;-58
2023/07/19 01:21:43;;;;;;;4.18;2.70;;;;;;;24.59;61.11;99079.00;4988075;28;20269;-58
2023/07/19 01:24:12;;;;;;;4.47;2.80;;;;;;;24.57;59.86;99077.59;4988008;28;20202;-58
2023/07/19 01:26:38;;;;;;;4.57;3.03;;;;;;;24.55;58.55;99085.66;4987925;28;20206;-58
2023/07/19 01:29:05;;;;;;;4.20;2.60;;;;;;;24.50;61.09;99085.44;4987936;28;20204;-58
2023/07/19 01:31:32;;;;;;;4.43;2.75;;;;;;;24.48;62.32;99082.22;4988071;28;20237;-58
2023/07/19 01:33:59;;;;;;;4.05;2.42;;;;;;;24.45;61.66;99085.22;4988156;28;20232;-58
2023/07/19 01:36:27;;;;;;;4.07;3.00;;;;;;;24.32;61.43;99093.06;4987957;28;20201;-58
2023/07/19 01:38:53;;;;;;;4.00;2.58;;;;;;;24.23;61.06;99087.22;4987839;28;20580;-58
2023/07/19 01:41:22;;;;;;;3.85;2.70;;;;;;;24.30;61.72;99090.63;4988070;28;20198;-58
2023/07/19 01:43:49;;;;;;;4.40;2.70;;;;;;;24.32;62.47;99087.81;4987981;28;20201;-58
2023/07/19 01:46:15;;;;;;;4.25;2.90;;;;;;;24.28;62.49;99097.06;4987823;28;20225;-58
2023/07/19 01:48:42;;;;;;;3.75;2.75;;;;;;;24.22;61.94;99092.63;4987955;28;20216;-58
2023/07/19 01:51:09;;;;;;;4.68;2.60;;;;;;;24.20;63.01;99086.78;4987564;28;20201;-58
2023/07/19 01:53:36;;;;;;;4.47;2.72;;;;;;;24.18;63.45;99087.78;4987697;28;20673;-58
2023/07/19 01:56:03;;;;;;;4.50;2.60;;;;;;;24.12;64.28;99101.66;4987510;28;20198;-58
2023/07/19 01:58:31;;;;;;;5.35;2.50;;;;;;;24.08;64.62;99100.41;4988620;28;20228;-58
2023/07/19 02:00:58;;;;;;;3.78;2.65;;;;;;;24.06;64.79;99089.38;4991037;28;20202;-58
2023/07/19 02:03:25;;;;;;;5.38;3.10;;;;;;;24.11;64.99;99086.97;4991119;28;20215;-58
2023/07/19 02:05:58;;;;;;;4.88;2.78;;;;;;;24.12;65.58;99096.44;4991223;28;20201;-58
2023/07/19 02:08:25;;;;;;;6.75;2.80;;;;;;;24.10;65.46;99090.59;4991343;28;20205;-58
2023/07/19 02:10:52;;;;;;;4.05;2.50;;;;;;;24.12;66.11;99085.97;4991133;28;20201;-58
2023/07/19 02:13:19;;;;;;;4.07;3.03;;;;;;;24.05;67.04;99089.56;4991303;28;20726;-58
2023/07/19 02:15:47;;;;;;;6.68;2.45;;;;;;;24.11;68.26;99073.91;4991194;28;20216;-58
2023/07/19 02:18:14;;;;;;;5.47;2.78;;;;;;;24.13;69.49;99065.88;4991144;28;20229;-57
2023/07/19 02:20:46;;;;;;;4.97;2.90;;;;;;;24.15;70.19;99067.28;4991034;28;20236;-58
2023/07/19 02:23:12;;;;;;;5.05;3.20;;;;;;;24.12;71.08;99064.28;4990946;28;20573;-58
2023/07/19 02:25:41;;;;;;;5.93;3.08;;;;;;;24.00;73.17;99058.00;4991020;28;20296;-58
2023/07/19 02:28:09;;;;;;;5.85;3.35;;;;;;;24.00;74.00;99066.69;4990735;28;20206;-58
2023/07/19 02:30:36;;;;;;;9.65;3.15;;;;;;;24.01;74.77;99065.66;4990930;28;20206;-58
2023/07/19 02:33:04;;;;;;;4.82;3.05;;;;;;;24.04;75.55;99069.69;4990949;28;20256;-57
2023/07/19 02:35:31;;;;;;;4.47;2.80;;;;;;;24.05;76.33;99064.25;4990875;28;20200;-58
2023/07/19 02:37:58;;;;;;;4.20;3.20;;;;;;;24.03;76.92;99070.66;4990763;28;20209;-58
2023/07/19 02:40:25;;;;;;;3.95;2.90;;;;;;;24.00;77.81;99066.69;4990631;28;20683;-58
2023/07/19 02:42:52;;;;;;;8.70;3.15;;;;;;;23.90;78.83;99066.25;4990652;28;20204;-58
2023/07/19 02:45:18;;;;;;;4.47;2.95;;;;;;;23.85;79.66;99073.84;4990570;28;20209;-58
2023/07/19 02:47:45;;;;;;;6.82;3.08;;;;;;;23.79;79.55;99069.41;4990782;28;20683;-58
2023/07/19 02:50:13;;;;;;;5.35;3.17;;;;;;;23.86;79.87;99067.66;4990327;28;20211;-58
2023/07/19 02:52:41;;;;;;;4.80;3.03;;;;;;;23.91;80.24;99071.28;4991032;28;20320;-57
2023/07/19 02:55:09;;;;;;;5.15;3.38;;;;;;;23.91;80.57;99067.84;4990585;28;20292;-58
2023/07/19 02:57:35;;;;;;;3.58;2.78;;;;;;;23.84;80.79;99073.06;4990172;28;20205;-58
2023/07/19 03:00:03;;;;;;;5.28;3.35;;;;;;;23.84;80.55;99080.09;4990335;28;20202;-58
2023/07/19 03:02:29;;;;;;;4.07;2.60;;;;;;;23.80;81.22;99084.09;4990079;28;20789;-58
2023/07/19 03:04:56;;;;;;;4.43;3.38;;;;;;;23.84;81.71;99086.09;4990081;28;20209;-58
2023/07/19 03:07:25;;;;;;;5.47;3.17;;;;;;;23.85;81.88;99085.13;4990436;28;20267;-57
2023/07/19 03:09:52;;;;;;;5.57;3.22;;;;;;;23.91;82.19;99083.50;4989665;28;20751;-57
2023/07/19 03:12:19;;;;;;;4.95;3.00;;;;;;;23.94;81.68;99077.91;4990202;28;20742;-57
2023/07/19 03:14:45;;;;;;;6.80;3.60;;;;;;;23.96;80.79;99075.88;4989500;28;20201;-58
2023/07/19 03:17:12;;;;;;;5.18;3.20;;;;;;;23.96;81.47;99073.28;4989295;28;20205;-58
2023/07/19 03:19:39;;;;;;;5.95;3.08;;;;;;;23.97;82.28;99072.28;4990192;28;20252;-58
2023/07/19 03:22:06;;;;;;;4.72;3.17;;;;;;;24.01;82.60;99073.50;4989913;28;20201;-58
2023/07/19 03:24:34;;;;;;;6.28;3.55;;;;;;;24.00;82.74;99069.28;4989718;28;20197;-58
2023/07/19 03:27:01;;;;;;;4.13;3.08;;;;;;;24.03;83.22;99061.06;4990076;28;20205;-58
2023/07/19 03:29:28;;;;;;;7.03;3.10;;;;;;;24.04;83.38;99069.69;4989920;28;20240;-58
2023/07/19 03:31:55;;;;;;;4.80;3.38;;;;;;;24.07;82.95;99067.47;4989737;28;20201;-58
2023/07/19 03:34:22;;;;;;;5.47;3.17;;;;;;;24.07;82.77;99067.47;4990046;28;20213;-58
2023/07/19 03:36:48;;;;;;;4.60;3.20;;;;;;;24.08;82.78;99066.47;4989873;28;20209;-58
2023/07/19 03:39:15;;;;;;;4.45;3.00;;;;;;;24.10;82.49;99080.13;4989819;28;20217;-58
2023/07/19 03:41:44;;;;;;;5.85;3.00;;;;;;;24.10;82.64;99077.53;4989666;28;20507;-58
2023/07/19 03:44:10;;;;;;;4.63;3.40;;;;;;;24.10;82.98;99082.75;4989523;28;20225;-58
2023/07/19 03:46:37;;;;;;;5.25;3.35;;;;;;;24.01;83.90;99088.38;4989505;28;20626;-58
2023/07/19 03:49:04;;;;;;;5.53;3.30;;;;;;;24.02;84.58;99088.16;4989200;28;20233;-58
2023/07/19 03:51:31;;;;;;;4.55;3.38;;;;;;;24.13;85.20;99087.56;4989525;28;20573;-58
2023/07/19 03:53:58;;;;;;;5.45;3.22;;;;;;;24.23;84.10;99079.38;4989365;28;20237;-58
2023/07/19 03:56:25;;;;;;;4.70;3.20;;;;;;;24.31;82.92;99070.50;4989755;28;20241;-58
2023/07/19 03:58:53;;;;;;;7.05;3.33;;;;;;;24.30;83.20;99068.91;4989112;28;20686;-58
2023/07/19 04:01:20;;;;;;;5.32;3.30;;;;;;;24.24;83.23;99059.28;4989198;28;20223;-58
2023/07/19 04:03:47;;;;;;;4.82;3.38;;;;;;;24.27;83.62;99062.28;4988948;28;20197;-57
2023/07/19 04:06:14;;;;;;;6.70;3.30;;;;;;;24.31;83.74;99054.84;4989218;28;20201;-58
2023/07/19 04:08:40;;;;;;;5.93;3.45;;;;;;;24.37;84.51;99060.06;4989165;28;20238;-58
2023/07/19 04:11:07;;;;;;;8.18;3.58;;;;;;;24.45;85.29;99048.63;4988901;28;20701;-58
2023/07/19 04:13:34;;;;;;;6.38;3.58;;;;;;;24.46;85.90;99045.00;4988934;28;20229;-58
2023/07/19 04:16:02;;;;;;;7.30;3.60;;;;;;;24.50;85.44;99045.44;4989356;28;20209;-58
2023/07/19 04:18:29;;;;;;;7.85;3.63;;;;;;;24.58;85.99;99042.59;4988801;28;20273;-58
2023/07/19 04:20:58;;;;;;;5.85;3.63;;;;;;;24.64;86.03;99052.25;4988283;28;20201;-58
2023/07/19 04:23:25;;;;;;;7.35;3.45;;;;;;;24.61;85.92;99058.69;4988962;28;20202;-58
2023/07/19 04:25:52;;;;;;;6.38;3.60;;;;;;;24.68;85.36;99057.88;4988588;28;20206;-59
2023/07/19 04:28:19;;;;;;;5.50;3.72;;;;;;;24.77;85.25;99056.66;4988897;28;20202;-58
2023/07/19 04:30:46;;;;;;;5.65;3.90;;;;;;;24.82;84.81;99056.88;4988648;28;20680;-59
2023/07/19 04:33:15;;;;;;;4.88;3.42;;;;;;;24.93;85.42;99061.47;4988493;28;20248;-58
2023/07/19 04:35:42;;;;;;;5.25;3.53;;;;;;;25.02;84.88;99068.09;4988650;28;20798;-58
2023/07/19 04:38:09;;;;;;;9.35;3.92;;;;;;;25.15;85.42;99069.09;4988404;28;20700;-58
2023/07/19 04:40:36;;;;;;;7.13;3.83;;;;;;;25.26;84.75;99065.84;4988569;28;20205;-58
2023/07/19 04:43:03;;;;;;;6.43;3.88;;;;;;;25.38;84.14;99069.41;4988724;28;20202;-58
2023/07/19 04:45:30;;;;;;;4.78;3.28;;;;;;;25.53;83.40;99064.72;4988659;28;20205;-58
2023/07/19 04:47:57;;;;;;;6.45;4.00;;;;;;;25.66;82.15;99060.44;4988376;28;20201;-58
2023/07/19 04:50:26;;;;;;;5.45;3.67;;;;;;;25.78;81.60;99057.97;4988346;28;20210;-58
2023/07/19 04:52:53;;;;;;;5.53;3.50;;;;;;;25.89;81.36;99049.44;4988940;28;20234;-58
2023/07/19 04:55:21;;;;;;;5.95;3.60;;;;;;;25.95;79.70;99046.81;4988460;28;20212;-58
2023/07/19 04:57:47;;;;;;;11.05;3.55;;;;;;;26.09;79.85;99044.06;4988326;28;20247;-59
2023/07/19 05:00:16;;;;;;;5.90;3.38;;;;;;;26.24;80.00;99035.91;4988216;28;20205;-59
2023/07/19 05:02:43;;;;;;;5.85;3.47;;;;;;;26.42;80.69;99035.97;4988295;28;20212;-58
2023/07/19 05:05:12;;;;;;;4.97;3.40;;;;;;;26.53;78.16;99045.78;4988306;28;20209;-58
2023/07/19 05:07:40;;;;;;;7.53;3.80;;;;;;;26.73;80.45;99040.34;4988189;28;20850;-58
2023/07/19 05:10:08;;;;;;;5.45;3.33;;;;;;;26.90;82.25;99039.78;4988124;28;20509;-58
2023/07/19 05:12:35;;;;;;;6.35;3.60;;;;;;;27.05;74.03;99042.84;4988049;28;20291;-58
2023/07/19 05:15:02;;;;;;;4.88;3.17;;;;;;;27.21;76.38;99042.28;4987987;28;20791;-58
2023/07/19 05:17:29;;;;;;;5.22;3.42;;;;;;;27.40;79.47;99052.75;4988568;28;20221;-58
2023/07/19 05:19:56;;;;;;;5.78;3.10;;;;;;;27.53;80.20;99055.22;4988029;28;20198;-58
2023/07/19 05:22:23;;;;;;;6.45;3.40;;;;;;;27.64;78.12;99051.84;4988164;28;20212;-59
2023/07/19 05:24:52;;;;;;;3.60;3.20;;;;;;;27.79;77.57;99048.06;4988267;28;20341;-58
2023/07/19 05:27:18;;;;;;;7.82;3.90;;;;;;;27.91;75.64;99054.13;4987972;28;20209;-58
2023/07/19 05:29:45;;;;;;;7.32;3.60;;;;;;;27.99;71.38;99052.00;4988198;28;20648;-58
2023/07/19 05:32:12;;;;;;;5.60;3.50;;;;;;;28.07;75.17;99050.88;4988395;28;20292;-58
2023/07/19 05:34:39;;;;;;;5.35;3.55;;;;;;;28.19;75.28;99041.19;4991846;28;20229;-59
2023/07/19 05:37:07;;;;;;;4.75;3.42;;;;;;;28.28;71.35;99035.59;4991887;28;20208;-58
2023/07/19 05:39:34;;;;;;;5.93;3.30;;;;;;;28.38;70.35;99030.56;4991683;28;20205;-59
2023/07/19 05:42:03;;;;;;;5.55;3.60;;;;;;;28.37;68.73;99028.97;4991699;28;20201;-58
2023/07/19 05:44:30;;;;;;;5.40;3.60;;;;;;;28.53;73.75;99028.28;4991680;28;20206;-58
2023/07/19 05:46:56;;;;;;;5.50;3.40;;;;;;;28.61;71.48;99029.78;4991679;28;20595;-59
2023/07/19 05:49:23;;;;;;;4.90;3.35;;;;;;;28.78;71.05;99027.25;4991997;28;20612;-59
2023/07/19 05:51:51;;;;;;;6.30;3.33;;;;;;;28.96;67.68;99027.09;4991731;28;20209;-59
2023/07/19 05:54:19;;;;;;;5.20;3.50;;;;;;;28.91;63.66;99024.38;4991764;28;20225;-59
2023/07/19 05:56:46;;;;;;;11.02;3.70;;;;;;;29.07;66.29;99030.78;4991693;28;20679;-59
2023/07/19 05:59:14;;;;;;;7.65;3.90;;;;;;;29.25;67.42;99029.81;4991376;28;20288;-59
2023/07/19 06:01:41;;;;;;;10.82;3.72;;;;;;;29.43;67.85;99027.00;4991516;28;20206;-58
2023/07/19 06:04:09;;;;;;;6.30;3.58;;;;;;;29.55;69.80;99019.03;4991312;28;20228;-58
2023/07/19 06:06:36;;;;;;;4.00;3.20;;;;;;;29.74;65.62;99011.78;4991138;28;20686;-58
2023/07/19 06:09:05;;;;;;;5.03;3.65;;;;;;;29.91;64.13;99006.53;4991413;28;20197;-58
2023/07/19 06:11:32;;;;;;;5.32;3.45;;;;;;;29.81;65.15;99012.41;4991670;28;20213;-58
2023/07/19 06:13:59;;;;;;;4.63;3.53;;;;;;;29.87;63.70;99006.19;4991163;28;20229;-58
2023/07/19 06:16:28;;;;;;;3.75;2.97;;;;;;;30.13;61.36;99004.75;4991094;28;20205;-58
2023/07/19 06:18:54;;;;;;;8.50;3.90;;;;;;;30.22;62.21;98997.25;4991003;28;20205;-59
2023/07/19 06:21:21;;;;;;;6.57;3.65;;;;;;;30.45;64.29;99007.63;4991353;28;20213;-59
2023/07/19 06:23:48;;;;;;;6.30;3.65;;;;;;;30.63;61.72;99003.09;4990851;28;20466;-58
2023/07/19 06:26:15;;;;;;;5.07;3.85;;;;;;;30.84;61.01;99009.50;4991238;28;20210;-59
2023/07/19 06:28:42;;;;;;;6.32;3.30;;;;;;;31.05;61.87;99007.91;4990808;28;20604;-58
2023/07/19 06:31:09;;;;;;;4.90;3.53;;;;;;;31.11;56.98;99009.53;4990692;28;20376;-59
2023/07/19 06:33:37;;;;;;;5.13;3.60;;;;;;;31.24;61.10;99014.47;4990691;28;20244;-59
2023/07/19 06:36:04;;;;;;;5.97;3.80;;;;;;;31.31;56.61;99015.06;4990693;28;20212;-59
2023/07/19 06:38:31;;;;;;;5.03;3.60;;;;;;;31.49;60.40;99006.00;4990672;28;20206;-59
2023/07/19 06:41:03;;;;;;;6.20;3.72;;;;;;;31.62;55.38;99004.00;4990552;28;20276;-59
2023/07/19 06:43:29;;;;;;;4.10;3.30;;;;;;;31.79;54.53;99009.97;4990495;28;20366;-59
2023/07/19 06:45:56;;;;;;;7.10;3.95;;;;;;;31.67;52.60;99007.50;4989775;28;20198;-59
2023/07/19 06:48:23;;;;;;;5.07;3.20;;;;;;;31.55;50.98;99007.66;4990550;28;20248;-59
2023/07/19 06:50:52;;;;;;;6.00;3.78;;;;;;;31.65;55.10;99001.69;4990732;28;20321;-60
2023/07/19 06:53:19;;;;;;;4.35;2.78;;;;;;;31.44;50.13;99007.81;4990587;28;20240;-59
2023/07/19 06:55:45;;;;;;;5.03;3.45;;;;;;;31.48;50.54;99007.06;4990594;28;20484;-59
2023/07/19 06:58:12;;;;;;;5.13;3.38;;;;;;;31.65;50.96;99003.50;4990332;28;20209;-61
2023/07/19 07:00:39;;;;;;;4.88;3.50;;;;;;;31.53;50.47;99008.94;4990511;28;20206;-62
2023/07/19 07:03:06;;;;;;;4.43;3.28;;;;;;;31.73;49.62;99009.13;4990069;28;20205;-62
2023/07/19 07:05:33;;;;;;;5.28;3.92;;;;;;;31.93;48.86;99016.47;4990218;28;20206;-62
2023/07/19 07:08:01;;;;;;;4.75;3.28;;;;;;;31.98;48.82;99008.59;4990217;28;20205;-63
2023/07/19 07:10:28;;;;;;;17.73;10.95;;;;;;;32.13;48.43;99005.25;4989941;28;20205;-63
2023/07/19 07:12:55;;;;;;;13.63;8.45;;;;;;;32.42;50.04;99002.25;4989953;28;20205;-62
2023/07/19 07:15:22;;;;;;;20.63;12.18;;;;;;;32.74;50.14;99004.03;4990186;28;20212;-61
2023/07/19 07:17:49;;;;;;;5.60;4.07;;;;;;;32.99;47.95;99009.47;4990230;28;20221;-60
2023/07/19 07:20:16;;;;;;;4.60;3.30;;;;;;;33.12;47.00;99006.34;4990020;28;20233;-61
2023/07/19 07:22:43;;;;;;;4.60;3.38;;;;;;;33.26;44.82;99006.63;4989998;28;20205;-62
2023/07/19 07:25:12;;;;;;;7.03;3.40;;;;;;;33.42;47.76;99010.09;4989791;28;20592;-59
2023/07/19 07:27:39;;;;;;;3.63;2.85;;;;;;;33.59;45.12;99005.38;4989965;28;20215;-60
2023/07/19 07:30:09;;;;;;;4.20;3.35;;;;;;;33.74;44.13;99011.75;4989466;28;20198;-60
2023/07/19 07:32:36;;;;;;;3.75;3.05;;;;;;;33.41;42.31;99016.47;4989599;28;20233;-60
2023/07/19 07:35:06;;;;;;;5.35;3.20;;;;;;;33.33;41.83;99012.47;4989549;28;20232;-60
2023/07/19 07:37:33;;;;;;;5.53;3.38;;;;;;;33.31;42.75;99021.78;4989962;28;20285;-62
2023/07/19 07:40:00;;;;;;;3.97;3.10;;;;;;;33.32;43.60;99010.09;4989689;28;20204;-61
2023/07/19 07:42:28;;;;;;;4.30;2.95;;;;;;;33.50;43.27;99012.25;4989587;28;20244;-60
2023/07/19 07:44:55;;;;;;;3.55;2.85;;;;;;;33.74;40.84;99011.75;4989768;28;20205;-61
2023/07/19 07:47:22;;;;;;;4.65;2.92;;;;;;;34.06;45.67;99013.38;4989564;28;20205;-61
2023/07/19 07:49:49;;;;;;;3.92;2.85;;;;;;;33.79;39.13;99012.56;4989434;28;20193;-60
2023/07/19 07:52:16;;;;;;;6.53;2.60;;;;;;;33.84;43.04;99006.47;4989385;28;20224;-61
2023/07/19 07:54:44;;;;;;;3.78;2.80;;;;;;;34.15;41.40;99006.47;4989119;28;20241;-60
2023/07/19 07:57:11;;;;;;;4.43;3.15;;;;;;;34.26;38.84;99008.03;4989327;28;20236;-59
2023/07/19 07:59:39;;;;;;;4.65;2.80;;;;;;;34.61;40.11;98995.78;4989136;28;20201;-59
2023/07/19 08:02:06;;;;;;;5.85;2.75;;;;;;;34.40;37.84;99003.78;4989037;28;20198;-60
2023/07/19 08:04:34;;;;;;;3.78;2.78;;;;;;;34.64;38.88;98995.22;4989330;28;20201;-59
2023/07/19 08:07:01;;;;;;;3.65;2.70;;;;;;;35.01;42.34;98996.69;4989222;28;20197;-59
2023/07/19 08:09:28;;;;;;;3.00;2.42;;;;;;;35.21;37.32;98996.59;4988919;28;20202;-59
2023/07/19 08:11:55;;;;;;;4.15;2.67;;;;;;;35.46;38.66;98994.81;4989086;28;20209;-59
2023/07/19 08:14:22;;;;;;;2.92;2.40;;;;;;;35.65;34.42;98995.78;4988850;28;20244;-59
2023/07/19 08:16:51;;;;;;;4.38;2.50;;;;;;;35.59;35.60;98991.56;4988975;28;20208;-59
2023/07/19 08:19:18;;;;;;;4.60;2.97;;;;;;;35.35;36.61;98994.91;4988971;28;20225;-59
2023/07/19 08:21:45;;;;;;;4.55;3.30;;;;;;;35.33;38.30;98983.75;4988880;28;20201;-57
2023/07/19 08:24:12;;;;;;;3.78;2.78;;;;;;;35.04;34.47;98980.97;4988807;28;20640;-59
2023/07/19 08:26:39;;;;;;;3.88;2.63;;;;;;;35.23;37.06;98983.84;4988790;28;20205;-60
2023/07/19 08:29:06;;;;;;;3.53;2.75;;;;;;;35.30;36.15;98978.19;4988652;28;20650;-60
2023/07/19 08:31:34;;;;;;;11.23;3.13;;;;;;;35.47;39.25;98975.16;4988924;28;20205;-59
2023/07/19 08:34:02;;;;;;;3.80;2.78;;;;;;;35.80;37.77;98971.72;4988953;28;20260;-59
2023/07/19 08:36:29;;;;;;;7.55;3.55;;;;;;;35.90;37.68;98975.34;4988609;28;20194;-59
2023/07/19 08:38:56;;;;;;;3.20;2.90;;;;;;;35.86;36.95;98977.00;4987170;28;20202;-60
2023/07/19 08:41:24;;;;;;;3.92;3.20;;;;;;;35.55;39.31;98971.94;4988539;28;20208;-60
2023/07/19 08:43:52;;;;;;;4.63;2.92;;;;;;;35.61;37.36;98973.50;4988759;28;20205;-60
2023/07/19 08:46:19;;;;;;;4.20;3.03;;;;;;;35.66;39.38;98975.28;4988412;28;20201;-57
2023/07/19 08:48:48;;;;;;;5.65;3.10;;;;;;;35.77;36.59;98982.91;4988531;28;20205;-60
2023/07/19 08:51:18;;;;;;;4.32;3.20;;;;;;;35.79;37.23;98975.44;4988570;28;20209;-60
2023/07/19 08:53:45;;;;;;;4.65;2.90;;;;;;;35.97;38.83;98967.84;4988352;28;20252;-59
2023/07/19 08:56:13;;;;;;;3.60;2.97;;;;;;;36.08;38.83;98960.59;4988362;28;20224;-59
2023/07/19 08:58:43;;;;;;;4.35;3.33;;;;;;;36.28;37.69;98960.38;4988327;28;20205;-59
2023/07/19 09:01:11;;;;;;;3.30;2.90;;;;;;;35.95;36.11;98965.44;4988107;28;20239;-59
2023/07/19 09:03:38;;;;;;;4.45;3.45;;;;;;;35.98;37.41;98956.13;4988181;28;20239;-59
2023/07/19 09:06:05;;;;;;;4.15;2.88;;;;;;;36.27;41.03;98958.78;4988265;28;20202;-59
2023/07/19 09:08:38;;;;;;;7.13;3.05;;;;;;;36.42;36.92;98958.63;4987929;28;20241;-60
2023/07/19 09:11:05;;;;;;;8.55;2.97;;;;;;;36.50;37.98;98949.97;4988381;28;20208;-59
2023/07/19 09:13:33;;;;;;;3.80;3.20;;;;;;;36.45;37.89;98939.41;4987704;28;20208;-59
2023/07/19 09:16:03;;;;;;;4.30;3.15;;;;;;;36.15;36.64;98940.53;4988083;28;20407;-59
2023/07/19 09:18:35;;;;;;;4.10;3.10;;;;;;;36.04;36.12;98949.69;4988195;28;20614;-59
2023/07/19 09:21:03;;;;;;;4.72;3.50;;;;;;;36.34;37.58;98943.25;4988257;28;20206;-59
2023/07/19 09:23:34;;;;;;;5.25;3.20;;;;;;;36.48;36.61;98949.50;4988184;28;20341;-59
2023/07/19 09:26:04;;;;;;;6.20;3.33;;;;;;;36.83;35.34;98949.31;4987787;28;20212;-59
2023/07/19 09:28:34;;;;;;;4.50;2.92;;;;;;;36.96;34.51;98942.50;4987961;28;20206;-56
2023/07/19 09:31:03;;;;;;;4.35;3.20;;;;;;;37.18;39.04;98942.75;4987855;28;20205;-57
2023/07/19 09:33:30;;;;;;;7.13;3.15;;;;;;;37.21;34.31;98950.16;4987941;28;20214;-57
2023/07/19 09:35:58;;;;;;;3.90;2.88;;;;;;;37.61;37.01;98947.94;4987961;28;20243;-58
2023/07/19 09:38:26;;;;;;;4.13;2.97;;;;;;;37.79;36.28;98938.31;4987915;28;20209;-57
2023/07/19 09:40:55;;;;;;;4.82;3.08;;;;;;;37.72;32.68;98948.56;4988508;28;20216;-57
2023/07/19 09:43:23;;;;;;;3.50;2.80;;;;;;;37.47;35.15;98929.25;4988087;28;20198;-57
2023/07/19 09:45:51;;;;;;;6.05;3.50;;;;;;;37.57;36.84;98930.94;4988239;28;20301;-57
2023/07/19 09:48:20;;;;;;;6.07;3.10;;;;;;;37.71;35.02;98936.31;4987969;28;20348;-57
2023/07/19 09:50:49;;;;;;;3.67;3.00;;;;;;;37.65;32.11;98921.50;4988072;28;20201;-57
2023/07/19 09:53:16;;;;;;;3.42;2.72;;;;;;;37.52;32.83;98923.81;4988057;28;21274;-57
2023/07/19 09:55:46;;;;;;;3.88;2.80;;;;;;;37.57;35.33;98929.06;4987642;28;20234;-58
2023/07/19 09:58:16;;;;;;;3.97;3.13;;;;;;;37.55;34.82;98922.44;4988197;28;20201;-57
2023/07/19 10:00:46;;;;;;;3.78;3.13;;;;;;;37.85;32.92;98910.44;4987793;28;20205;-57
2023/07/19 10:03:18;;;;;;;5.13;2.88;;;;;;;37.91;35.03;98909.25;4988068;28;20693;-57
2023/07/19 10:05:45;;;;;;;4.30;2.95;;;;;;;37.68;34.86;98902.22;4987735;28;20217;-56
2023/07/19 10:08:12;;;;;;;3.85;3.03;;;;;;;37.45;32.42;98901.25;4987959;28;20209;-57
2023/07/19 10:10:40;;;;;;;4.10;2.85;;;;;;;37.51;32.68;98895.56;4987950;28;20209;-57
2023/07/19 10:13:07;;;;;;;4.57;3.17;;;;;;;37.69;34.32;98896.56;4987880;28;20202;-57
2023/07/19 10:15:35;;;;;;;3.58;2.90;;;;;;;37.90;34.36;98898.88;4987624;28;20248;-57
2023/07/19 10:18:12;;;;;;;4.78;3.28;;;;;;;38.22;36.65;98892.66;4987712;28;20201;-57
2023/07/19 10:20:40;;;;;;;3.30;2.80;;;;;;;38.30;34.73;98888.50;4990070;28;20209;-57
2023/07/19 10:23:08;;;;;;;4.97;3.10;;;;;;;38.63;33.57;98889.16;4990738;28;20777;-57
2023/07/19 10:25:36;;;;;;;4.95;3.03;;;;;;;38.45;32.31;98886.34;4990858;28;20202;-57
2023/07/19 10:28:05;;;;;;;4.70;3.30;;;;;;;38.41;32.49;98884.56;4990769;28;20205;-57
2023/07/19 10:30:49;;;;;;;3.83;3.00;;;;;;;38.38;31.54;98880.59;4990824;28;20206;-57
2023/07/19 10:33:20;;;;;;;3.40;3.10;;;;;;;38.74;34.72;98877.16;4990812;28;20721;-57
2023/07/19 10:35:49;;;;;;;3.65;3.10;;;;;;;38.60;32.99;98871.06;4990799;28;20625;-57
2023/07/19 10:38:18;;;;;;;3.58;2.95;;;;;;;38.78;35.92;98870.13;4990681;28;20209;-57
2023/07/19 10:40:47;;;;;;;3.35;2.90;;;;;;;38.69;33.06;98871.91;4990800;28;20209;-57
2023/07/19 10:43:14;;;;;;;4.10;3.15;;;;;;;38.72;32.09;98858.75;4990560;28;20465;-57
2023/07/19 10:45:42;;;;;;;4.18;2.90;;;;;;;38.85;34.89;98862.50;4990753;28;20209;-57
2023/07/19 10:48:10;;;;;;;5.05;2.90;;;;;;;39.06;34.95;98851.31;4990459;28;20212;-57
2023/07/19 10:50:39;;;;;;;3.45;3.03;;;;;;;38.94;31.65;98847.31;4990703;28;20201;-58
2023/07/19 10:53:07;;;;;;;3.30;2.78;;;;;;;38.87;31.23;98848.84;4990264;28;20197;-57
2023/07/19 10:55:34;;;;;;;3.92;2.80;;;;;;;39.02;36.92;98842.34;4990267;28;20314;-57
2023/07/19 10:58:01;;;;;;;3.78;3.00;;;;;;;39.10;33.65;98841.59;4990283;28;20672;-58
2023/07/19 11:00:28;;;;;;;4.15;2.92;;;;;;;39.26;33.22;98834.75;4990158;28;20201;-57
2023/07/19 11:02:55;;;;;;;3.80;3.00;;;;;;;39.39;32.50;98833.94;4990227;28;20208;-58
2023/07/19 11:05:21;;;;;;;3.13;2.75;;;;;;;39.32;29.98;98830.88;4990222;28;20296;-58
2023/07/19 11:07:51;;;;;;;3.97;3.00;;;;;;;39.51;31.71;98827.22;4990099;28;20208;-57
2023/07/19 11:10:19;;;;;;;3.30;2.80;;;;;;;39.74;30.60;98830.56;4990283;28;20259;-58
2023/07/19 11:12:47;;;;;;;3.50;2.72;;;;;;;39.32;30.83;98830.88;4990419;28;20464;-58
2023/07/19 11:15:14;;;;;;;4.22;3.03;;;;;;;39.12;30.53;98831.38;4989925;28;20738;-57
2023/07/19 11:17:41;;;;;;;3.22;2.92;;;;;;;38.99;32.33;98830.38;4989806;28;20266;-57
2023/07/19 11:20:10;;;;;;;3.40;3.00;;;;;;;38.92;30.35;98830.00;4990128;28;20205;-58
2023/07/19 11:22:37;;;;;;;3.67;2.83;;;;;;;39.15;30.69;98822.75;4989876;28;20209;-57
2023/07/19 11:25:12;;;;;;;5.13;3.40;;;;;;;39.17;30.73;98817.88;4989837;28;20205;-58
2023/07/19 11:27:39;;;;;;;4.40;2.90;;;;;;;39.39;31.32;98809.84;4989673;28;20237;-57
2023/07/19 11:30:08;;;;;;;4.00;3.00;;;;;;;39.47;33.10;98807.50;4989588;28;20197;-57
2023/07/19 11:32:35;;;;;;;3.78;2.97;;;;;;;39.38;30.42;98805.56;4989481;28;20644;-58
2023/07/19 11:35:02;;;;;;;3.28;2.70;;;;;;;39.26;33.25;98800.00;4989639;28;20232;-57